sensor_id;sensor_type;location;lat;lon;timestamp;temperature;humidity
33739;DHT22;20063;51.730;11.110;2022-07-24T00:00:46;15.20;99.90
33739;DHT22;20063;51.730;11.110;2022-07-24T00:03:12;15.20;99.90
33739;DHT22;20063;51.730;11.110;2022-07-24T00:05:47;15.20;99.90
33739;DHT22;20063;51.730;11.110;2022-07-24T00:08:12;15.10;99.90
33739;DHT22;20063;51.730;11.110;2022-07-24T00:10:38;15.10;99.90
33739;DHT22;20063;51.730;11.110;2022-07-24T00:13:13;15.10;99.90
33739;DHT22;20063;51.730;11.110;2022-07-24T00:15:39;15.10;99.90
33739;DHT22;20063;51.730;11.110;2022-07-24T00:18:04;15.10;99.90
33739;DHT22;20063;51.730;11.110;2022-07-24T00:20:38;15.10;99.90
33739;DHT22;20063;51.730;11.110;2022-07-24T00:23:04;15.10;99.90
33739;DHT22;20063;51.730;11.110;2022-07-24T00:25:29;15.10;99.90
33739;DHT22;20063;51.730;11.110;2022-07-24T00:28:05;15.10;99.90
33739;DHT22;20063;51.730;11.110;2022-07-24T00:30:30;15.00;99.90
33739;DHT22;20063;51.730;11.110;2022-07-24T00:32:56;14.90;99.90
33739;DHT22;20063;51.730;11.110;2022-07-24T00:35:21;14.90;99.90
33739;DHT22;20063;51.730;11.110;2022-07-24T00:37:47;14.90;99.90
33739;DHT22;20063;51.730;11.110;2022-07-24T00:40:13;14.90;99.90
33739;DHT22;20063;51.730;11.110;2022-07-24T00:43:02;14.90;99.90
33739;DHT22;20063;51.730;11.110;2022-07-24T00:45:27;14.90;99.90
33739;DHT22;20063;51.730;11.110;2022-07-24T00:47:53;14.90;99.90
33739;DHT22;20063;51.730;11.110;2022-07-24T00:53:19;14.90;99.90
33739;DHT22;20063;51.730;11.110;2022-07-24T00:55:45;14.90;99.90
33739;DHT22;20063;51.730;11.110;2022-07-24T00:58:13;14.90;99.90
33739;DHT22;20063;51.730;11.110;2022-07-24T01:00:39;14.90;99.90
33739;DHT22;20063;51.730;11.110;2022-07-24T01:03:05;14.90;99.90
33739;DHT22;20063;51.730;11.110;2022-07-24T01:08:59;14.80;99.90
33739;DHT22;20063;51.730;11.110;2022-07-24T01:11:26;14.80;99.90
33739;DHT22;20063;51.730;11.110;2022-07-24T01:13:58;14.80;99.90
33739;DHT22;20063;51.730;11.110;2022-07-24T01:16:23;14.80;99.90
33739;DHT22;20063;51.730;11.110;2022-07-24T01:18:49;14.80;99.90
33739;DHT22;20063;51.730;11.110;2022-07-24T01:21:33;14.80;99.90
33739;DHT22;20063;51.730;11.110;2022-07-24T01:23:59;14.80;99.90
33739;DHT22;20063;51.730;11.110;2022-07-24T01:26:25;14.70;99.90
33739;DHT22;20063;51.730;11.110;2022-07-24T01:28:52;14.70;99.90
33739;DHT22;20063;51.730;11.110;2022-07-24T01:31:18;14.70;99.90
33739;DHT22;20063;51.730;11.110;2022-07-24T01:33:44;14.70;99.90
33739;DHT22;20063;51.730;11.110;2022-07-24T01:36:35;14.70;99.90
33739;DHT22;20063;51.730;11.110;2022-07-24T01:39:01;14.60;99.90
33739;DHT22;20063;51.730;11.110;2022-07-24T01:41:39;14.50;99.90
33739;DHT22;20063;51.730;11.110;2022-07-24T01:44:04;14.50;99.90
33739;DHT22;20063;51.730;11.110;2022-07-24T01:49:36;14.50;99.90
33739;DHT22;20063;51.730;11.110;2022-07-24T01:52:33;14.50;99.90
33739;DHT22;20063;51.730;11.110;2022-07-24T01:54:58;14.40;99.90
33739;DHT22;20063;51.730;11.110;2022-07-24T01:57:24;14.40;99.90
33739;DHT22;20063;51.730;11.110;2022-07-24T02:02:57;14.40;99.90
33739;DHT22;20063;51.730;11.110;2022-07-24T02:05:46;14.40;99.90
33739;DHT22;20063;51.730;11.110;2022-07-24T02:08:22;14.40;99.90
33739;DHT22;20063;51.730;11.110;2022-07-24T02:10:48;14.40;99.90
33739;DHT22;20063;51.730;11.110;2022-07-24T02:13:13;14.40;99.90
33739;DHT22;20063;51.730;11.110;2022-07-24T02:15:48;14.40;99.90
33739;DHT22;20063;51.730;11.110;2022-07-24T02:18:14;14.40;99.90
33739;DHT22;20063;51.730;11.110;2022-07-24T02:20:54;14.40;99.90
33739;DHT22;20063;51.730;11.110;2022-07-24T02:23:19;14.30;99.90
33739;DHT22;20063;51.730;11.110;2022-07-24T02:25:46;14.30;99.90
33739;DHT22;20063;51.730;11.110;2022-07-24T02:28:27;14.30;99.90
33739;DHT22;20063;51.730;11.110;2022-07-24T02:30:53;14.20;99.90
33739;DHT22;20063;51.730;11.110;2022-07-24T02:33:19;14.20;99.90
33739;DHT22;20063;51.730;11.110;2022-07-24T02:39:06;14.20;99.90
33739;DHT22;20063;51.730;11.110;2022-07-24T02:44:54;14.10;99.90
33739;DHT22;20063;51.730;11.110;2022-07-24T02:47:19;14.10;99.90
33739;DHT22;20063;51.730;11.110;2022-07-24T02:53:07;14.10;99.90
33739;DHT22;20063;51.730;11.110;2022-07-24T02:58:43;14.00;99.90
33739;DHT22;20063;51.730;11.110;2022-07-24T03:01:10;14.00;99.90
33739;DHT22;20063;51.730;11.110;2022-07-24T03:03:35;13.90;99.90
33739;DHT22;20063;51.730;11.110;2022-07-24T03:06:01;13.90;99.90
33739;DHT22;20063;51.730;11.110;2022-07-24T03:08:26;13.80;99.90
33739;DHT22;20063;51.730;11.110;2022-07-24T03:11:18;13.90;99.90
33739;DHT22;20063;51.730;11.110;2022-07-24T03:13:44;13.90;99.90
33739;DHT22;20063;51.730;11.110;2022-07-24T03:16:10;13.90;99.90
33739;DHT22;20063;51.730;11.110;2022-07-24T03:18:42;13.90;99.90
33739;DHT22;20063;51.730;11.110;2022-07-24T03:21:12;14.00;99.90
33739;DHT22;20063;51.730;11.110;2022-07-24T03:23:38;13.90;99.90
33739;DHT22;20063;51.730;11.110;2022-07-24T03:26:03;14.00;99.90
33739;DHT22;20063;51.730;11.110;2022-07-24T03:28:32;13.90;99.90
33739;DHT22;20063;51.730;11.110;2022-07-24T03:30:59;13.90;99.90
33739;DHT22;20063;51.730;11.110;2022-07-24T03:33:26;13.90;99.90
33739;DHT22;20063;51.730;11.110;2022-07-24T03:35:51;14.00;99.90
33739;DHT22;20063;51.730;11.110;2022-07-24T03:38:52;14.00;99.90
33739;DHT22;20063;51.730;11.110;2022-07-24T03:41:17;13.90;99.90
33739;DHT22;20063;51.730;11.110;2022-07-24T03:43:43;13.90;99.90
33739;DHT22;20063;51.730;11.110;2022-07-24T03:46:11;13.90;99.90
33739;DHT22;20063;51.730;11.110;2022-07-24T03:48:36;13.80;99.90
33739;DHT22;20063;51.730;11.110;2022-07-24T03:51:02;13.80;99.90
33739;DHT22;20063;51.730;11.110;2022-07-24T03:56:45;13.80;99.90
33739;DHT22;20063;51.730;11.110;2022-07-24T03:59:10;13.80;99.90
33739;DHT22;20063;51.730;11.110;2022-07-24T04:02:01;13.80;99.90
33739;DHT22;20063;51.730;11.110;2022-07-24T04:04:26;13.80;99.90
33739;DHT22;20063;51.730;11.110;2022-07-24T04:07:01;13.80;99.90
33739;DHT22;20063;51.730;11.110;2022-07-24T04:09:27;13.90;99.90
33739;DHT22;20063;51.730;11.110;2022-07-24T04:11:52;13.90;99.90
33739;DHT22;20063;51.730;11.110;2022-07-24T04:14:24;13.90;99.90
33739;DHT22;20063;51.730;11.110;2022-07-24T04:16:49;13.90;99.90
33739;DHT22;20063;51.730;11.110;2022-07-24T04:19:16;13.90;99.90
33739;DHT22;20063;51.730;11.110;2022-07-24T04:22:12;14.00;99.90
33739;DHT22;20063;51.730;11.110;2022-07-24T04:24:37;14.00;99.90
33739;DHT22;20063;51.730;11.110;2022-07-24T04:27:29;14.00;99.90
33739;DHT22;20063;51.730;11.110;2022-07-24T04:29:55;14.10;99.90
33739;DHT22;20063;51.730;11.110;2022-07-24T04:32:48;14.10;99.90
33739;DHT22;20063;51.730;11.110;2022-07-24T04:38:35;14.30;99.90
33739;DHT22;20063;51.730;11.110;2022-07-24T04:44:15;14.40;99.90
33739;DHT22;20063;51.730;11.110;2022-07-24T04:46:41;14.50;99.90
33739;DHT22;20063;51.730;11.110;2022-07-24T04:49:15;14.50;99.90
33739;DHT22;20063;51.730;11.110;2022-07-24T04:51:40;14.60;99.90
33739;DHT22;20063;51.730;11.110;2022-07-24T04:54:06;14.60;99.90
33739;DHT22;20063;51.730;11.110;2022-07-24T04:56:50;14.70;99.90
33739;DHT22;20063;51.730;11.110;2022-07-24T04:59:16;14.80;99.90
33739;DHT22;20063;51.730;11.110;2022-07-24T05:01:41;14.90;99.90
33739;DHT22;20063;51.730;11.110;2022-07-24T05:04:07;14.90;99.90
33739;DHT22;20063;51.730;11.110;2022-07-24T05:06:40;15.00;99.90
33739;DHT22;20063;51.730;11.110;2022-07-24T05:09:06;15.00;99.90
33739;DHT22;20063;51.730;11.110;2022-07-24T05:11:31;15.10;99.90
33739;DHT22;20063;51.730;11.110;2022-07-24T05:14:21;15.20;99.90
33739;DHT22;20063;51.730;11.110;2022-07-24T05:16:46;15.20;99.90
33739;DHT22;20063;51.730;11.110;2022-07-24T05:19:19;15.30;99.90
33739;DHT22;20063;51.730;11.110;2022-07-24T05:21:45;15.40;99.90
33739;DHT22;20063;51.730;11.110;2022-07-24T05:24:10;15.50;99.90
33739;DHT22;20063;51.730;11.110;2022-07-24T05:26:36;15.60;99.90
33739;DHT22;20063;51.730;11.110;2022-07-24T05:29:03;15.70;99.90
33739;DHT22;20063;51.730;11.110;2022-07-24T05:31:31;15.70;99.90
33739;DHT22;20063;51.730;11.110;2022-07-24T05:33:56;15.90;99.90
33739;DHT22;20063;51.730;11.110;2022-07-24T05:36:28;16.00;99.90
33739;DHT22;20063;51.730;11.110;2022-07-24T05:38:54;16.10;99.90
33739;DHT22;20063;51.730;11.110;2022-07-24T05:41:20;16.20;99.90
33739;DHT22;20063;51.730;11.110;2022-07-24T05:44:07;16.30;99.90
33739;DHT22;20063;51.730;11.110;2022-07-24T05:46:33;16.40;99.90
33739;DHT22;20063;51.730;11.110;2022-07-24T05:49:03;16.50;99.90
33739;DHT22;20063;51.730;11.110;2022-07-24T05:51:28;16.50;99.90
33739;DHT22;20063;51.730;11.110;2022-07-24T05:54:21;16.60;99.90
33739;DHT22;20063;51.730;11.110;2022-07-24T05:56:46;16.70;99.90
33739;DHT22;20063;51.730;11.110;2022-07-24T05:59:29;16.70;99.90
33739;DHT22;20063;51.730;11.110;2022-07-24T06:01:55;16.80;99.90
33739;DHT22;20063;51.730;11.110;2022-07-24T06:04:21;16.80;99.90
33739;DHT22;20063;51.730;11.110;2022-07-24T06:06:47;16.90;99.90
33739;DHT22;20063;51.730;11.110;2022-07-24T06:09:13;17.00;99.90
33739;DHT22;20063;51.730;11.110;2022-07-24T06:11:53;17.00;99.90
33739;DHT22;20063;51.730;11.110;2022-07-24T06:14:19;17.10;99.90
33739;DHT22;20063;51.730;11.110;2022-07-24T06:16:44;17.10;99.90
33739;DHT22;20063;51.730;11.110;2022-07-24T06:19:13;17.20;99.90
33739;DHT22;20063;51.730;11.110;2022-07-24T06:21:39;17.30;99.90
33739;DHT22;20063;51.730;11.110;2022-07-24T06:24:16;17.40;99.90
33739;DHT22;20063;51.730;11.110;2022-07-24T06:26:42;17.40;99.90
33739;DHT22;20063;51.730;11.110;2022-07-24T06:29:17;17.40;99.90
33739;DHT22;20063;51.730;11.110;2022-07-24T06:31:42;17.50;99.90
33739;DHT22;20063;51.730;11.110;2022-07-24T06:34:16;17.60;99.90
33739;DHT22;20063;51.730;11.110;2022-07-24T06:36:42;17.60;99.90
33739;DHT22;20063;51.730;11.110;2022-07-24T06:39:09;17.70;99.90
33739;DHT22;20063;51.730;11.110;2022-07-24T06:41:34;17.70;99.90
33739;DHT22;20063;51.730;11.110;2022-07-24T06:44:00;17.70;99.90
33739;DHT22;20063;51.730;11.110;2022-07-24T06:46:31;17.80;99.90
33739;DHT22;20063;51.730;11.110;2022-07-24T06:48:57;17.80;99.90
33739;DHT22;20063;51.730;11.110;2022-07-24T06:51:22;17.90;99.90
33739;DHT22;20063;51.730;11.110;2022-07-24T06:53:52;18.00;99.90
33739;DHT22;20063;51.730;11.110;2022-07-24T06:56:18;18.10;99.90
33739;DHT22;20063;51.730;11.110;2022-07-24T06:58:44;18.20;99.90
33739;DHT22;20063;51.730;11.110;2022-07-24T07:01:09;18.20;99.90
33739;DHT22;20063;51.730;11.110;2022-07-24T07:03:35;18.30;99.90
33739;DHT22;20063;51.730;11.110;2022-07-24T07:06:12;18.40;99.90
33739;DHT22;20063;51.730;11.110;2022-07-24T07:08:40;18.40;99.90
33739;DHT22;20063;51.730;11.110;2022-07-24T07:11:05;18.50;99.90
33739;DHT22;20063;51.730;11.110;2022-07-24T07:13:34;18.60;99.90
33739;DHT22;20063;51.730;11.110;2022-07-24T07:16:00;18.60;99.90
33739;DHT22;20063;51.730;11.110;2022-07-24T07:18:26;18.70;99.90
33739;DHT22;20063;51.730;11.110;2022-07-24T07:20:51;18.80;99.90
33739;DHT22;20063;51.730;11.110;2022-07-24T07:23:31;19.00;99.90
33739;DHT22;20063;51.730;11.110;2022-07-24T07:25:56;19.10;99.90
33739;DHT22;20063;51.730;11.110;2022-07-24T07:28:34;19.30;99.90
33739;DHT22;20063;51.730;11.110;2022-07-24T07:30:59;19.40;99.90
33739;DHT22;20063;51.730;11.110;2022-07-24T07:33:25;19.50;99.90
33739;DHT22;20063;51.730;11.110;2022-07-24T07:35:55;19.50;99.90
33739;DHT22;20063;51.730;11.110;2022-07-24T07:38:20;19.60;99.90
33739;DHT22;20063;51.730;11.110;2022-07-24T07:40:52;19.70;99.90
33739;DHT22;20063;51.730;11.110;2022-07-24T07:43:18;19.80;99.90
33739;DHT22;20063;51.730;11.110;2022-07-24T07:45:43;20.00;99.90
33739;DHT22;20063;51.730;11.110;2022-07-24T07:48:10;20.10;99.90
33739;DHT22;20063;51.730;11.110;2022-07-24T07:50:36;20.30;99.90
33739;DHT22;20063;51.730;11.110;2022-07-24T07:53:01;20.40;99.90
33739;DHT22;20063;51.730;11.110;2022-07-24T07:55:55;20.40;99.90
33739;DHT22;20063;51.730;11.110;2022-07-24T07:58:20;20.50;99.90
33739;DHT22;20063;51.730;11.110;2022-07-24T08:00:48;20.50;99.90
33739;DHT22;20063;51.730;11.110;2022-07-24T08:03:14;20.60;99.90
33739;DHT22;20063;51.730;11.110;2022-07-24T08:05:55;20.60;99.90
33739;DHT22;20063;51.730;11.110;2022-07-24T08:08:23;20.70;99.90
33739;DHT22;20063;51.730;11.110;2022-07-24T08:10:48;20.80;99.90
33739;DHT22;20063;51.730;11.110;2022-07-24T08:13:15;20.90;99.90
33739;DHT22;20063;51.730;11.110;2022-07-24T08:15:44;20.90;99.90
33739;DHT22;20063;51.730;11.110;2022-07-24T08:18:18;20.80;99.90
33739;DHT22;20063;51.730;11.110;2022-07-24T08:20:44;20.80;99.90
33739;DHT22;20063;51.730;11.110;2022-07-24T08:23:19;20.80;99.90
33739;DHT22;20063;51.730;11.110;2022-07-24T08:25:44;20.90;99.90
33739;DHT22;20063;51.730;11.110;2022-07-24T08:28:16;21.20;99.90
33739;DHT22;20063;51.730;11.110;2022-07-24T08:30:42;21.40;99.90
33739;DHT22;20063;51.730;11.110;2022-07-24T08:33:14;21.40;99.90
33739;DHT22;20063;51.730;11.110;2022-07-24T08:35:39;21.40;99.90
33739;DHT22;20063;51.730;11.110;2022-07-24T08:38:06;21.40;99.90
33739;DHT22;20063;51.730;11.110;2022-07-24T08:40:34;21.40;99.90
33739;DHT22;20063;51.730;11.110;2022-07-24T08:43:06;21.40;99.90
33739;DHT22;20063;51.730;11.110;2022-07-24T08:45:35;21.50;99.90
33739;DHT22;20063;51.730;11.110;2022-07-24T08:48:03;21.50;99.90
33739;DHT22;20063;51.730;11.110;2022-07-24T08:50:41;21.60;99.90
33739;DHT22;20063;51.730;11.110;2022-07-24T08:53:08;21.70;99.90
33739;DHT22;20063;51.730;11.110;2022-07-24T08:55:50;21.80;99.90
33739;DHT22;20063;51.730;11.110;2022-07-24T08:58:16;21.80;99.90
33739;DHT22;20063;51.730;11.110;2022-07-24T09:00:44;21.70;99.90
33739;DHT22;20063;51.730;11.110;2022-07-24T09:03:09;21.70;99.90
33739;DHT22;20063;51.730;11.110;2022-07-24T09:05:57;21.70;99.90
33739;DHT22;20063;51.730;11.110;2022-07-24T09:11:38;21.90;99.90
33739;DHT22;20063;51.730;11.110;2022-07-24T09:14:10;22.10;99.90
33739;DHT22;20063;51.730;11.110;2022-07-24T09:17:12;22.10;99.90
33739;DHT22;20063;51.730;11.110;2022-07-24T09:19:47;22.10;99.90
33739;DHT22;20063;51.730;11.110;2022-07-24T09:25:26;22.40;99.90
33739;DHT22;20063;51.730;11.110;2022-07-24T09:31:11;22.50;99.90
33739;DHT22;20063;51.730;11.110;2022-07-24T09:33:44;22.50;99.90
33739;DHT22;20063;51.730;11.110;2022-07-24T09:36:14;22.60;99.90
33739;DHT22;20063;51.730;11.110;2022-07-24T09:42:00;23.00;99.90
33739;DHT22;20063;51.730;11.110;2022-07-24T09:44:27;23.00;99.30
33739;DHT22;20063;51.730;11.110;2022-07-24T09:46:57;23.00;99.90
33739;DHT22;20063;51.730;11.110;2022-07-24T09:49:30;23.00;99.90
33739;DHT22;20063;51.730;11.110;2022-07-24T09:54:35;23.00;99.90
33739;DHT22;20063;51.730;11.110;2022-07-24T09:57:33;23.10;97.50
33739;DHT22;20063;51.730;11.110;2022-07-24T10:00:01;23.10;97.60
33739;DHT22;20063;51.730;11.110;2022-07-24T10:02:29;23.30;96.40
33739;DHT22;20063;51.730;11.110;2022-07-24T10:05:21;23.50;91.50
33739;DHT22;20063;51.730;11.110;2022-07-24T10:07:48;23.40;90.30
33739;DHT22;20063;51.730;11.110;2022-07-24T10:10:14;23.40;94.10
33739;DHT22;20063;51.730;11.110;2022-07-24T10:15:37;23.70;84.30
33739;DHT22;20063;51.730;11.110;2022-07-24T10:25:28;23.80;91.80
33739;DHT22;20063;51.730;11.110;2022-07-24T10:27:58;23.90;89.50
33739;DHT22;20063;51.730;11.110;2022-07-24T10:30:37;24.10;82.20
33739;DHT22;20063;51.730;11.110;2022-07-24T10:33:02;24.20;91.30
33739;DHT22;20063;51.730;11.110;2022-07-24T10:35:32;24.40;77.40
33739;DHT22;20063;51.730;11.110;2022-07-24T10:38:19;24.40;81.50
33739;DHT22;20063;51.730;11.110;2022-07-24T10:41:09;24.30;82.00
33739;DHT22;20063;51.730;11.110;2022-07-24T10:46:58;24.10;81.40
33739;DHT22;20063;51.730;11.110;2022-07-24T10:49:54;24.10;86.30
33739;DHT22;20063;51.730;11.110;2022-07-24T10:52:32;24.10;88.10
33739;DHT22;20063;51.730;11.110;2022-07-24T10:55:30;24.00;90.20
33739;DHT22;20063;51.730;11.110;2022-07-24T10:57:58;24.10;90.50
33739;DHT22;20063;51.730;11.110;2022-07-24T11:00:32;24.20;86.90
33739;DHT22;20063;51.730;11.110;2022-07-24T11:03:02;24.40;85.80
33739;DHT22;20063;51.730;11.110;2022-07-24T11:05:30;24.60;81.30
33739;DHT22;20063;51.730;11.110;2022-07-24T11:21:33;25.40;76.30
33739;DHT22;20063;51.730;11.110;2022-07-24T11:31:57;25.10;79.60
33739;DHT22;20063;51.730;11.110;2022-07-24T11:34:24;25.10;86.60
33739;DHT22;20063;51.730;11.110;2022-07-24T11:36:52;25.30;91.30
33739;DHT22;20063;51.730;11.110;2022-07-24T11:39:19;25.40;77.40
33739;DHT22;20063;51.730;11.110;2022-07-24T11:41:46;25.60;71.80
33739;DHT22;20063;51.730;11.110;2022-07-24T11:44:13;25.60;73.90
33739;DHT22;20063;51.730;11.110;2022-07-24T11:46:40;25.60;73.90
33739;DHT22;20063;51.730;11.110;2022-07-24T11:49:09;25.70;78.50
33739;DHT22;20063;51.730;11.110;2022-07-24T11:54:09;25.80;70.20
33739;DHT22;20063;51.730;11.110;2022-07-24T11:56:34;25.90;72.30
33739;DHT22;20063;51.730;11.110;2022-07-24T11:59:00;26.00;68.10
33739;DHT22;20063;51.730;11.110;2022-07-24T12:01:26;26.00;68.00
33739;DHT22;20063;51.730;11.110;2022-07-24T12:03:52;26.00;69.80
33739;DHT22;20063;51.730;11.110;2022-07-24T12:06:19;26.10;66.00
33739;DHT22;20063;51.730;11.110;2022-07-24T12:08:45;26.10;65.20
33739;DHT22;20063;51.730;11.110;2022-07-24T12:11:11;26.00;65.10
33739;DHT22;20063;51.730;11.110;2022-07-24T12:13:40;26.00;63.60
33739;DHT22;20063;51.730;11.110;2022-07-24T12:16:07;25.90;66.10
33739;DHT22;20063;51.730;11.110;2022-07-24T12:18:32;25.90;66.70
33739;DHT22;20063;51.730;11.110;2022-07-24T12:21:01;25.90;66.00
33739;DHT22;20063;51.730;11.110;2022-07-24T12:23:27;25.90;68.90
33739;DHT22;20063;51.730;11.110;2022-07-24T12:25:54;25.90;69.70
33739;DHT22;20063;51.730;11.110;2022-07-24T12:28:20;25.90;65.90
33739;DHT22;20063;51.730;11.110;2022-07-24T12:30:48;26.00;68.70
33739;DHT22;20063;51.730;11.110;2022-07-24T12:36:00;26.00;64.90
33739;DHT22;20063;51.730;11.110;2022-07-24T12:38:37;26.00;64.00
33739;DHT22;20063;51.730;11.110;2022-07-24T12:41:09;26.10;63.10
33739;DHT22;20063;51.730;11.110;2022-07-24T12:43:56;26.00;62.80
33739;DHT22;20063;51.730;11.110;2022-07-24T12:46:24;26.00;65.00
33739;DHT22;20063;51.730;11.110;2022-07-24T12:49:00;26.00;63.40
33739;DHT22;20063;51.730;11.110;2022-07-24T12:51:42;26.00;64.10
33739;DHT22;20063;51.730;11.110;2022-07-24T12:54:09;26.00;63.60
33739;DHT22;20063;51.730;11.110;2022-07-24T12:56:40;26.00;63.90
33739;DHT22;20063;51.730;11.110;2022-07-24T12:59:05;26.10;63.50
33739;DHT22;20063;51.730;11.110;2022-07-24T13:01:53;26.10;63.90
33739;DHT22;20063;51.730;11.110;2022-07-24T13:04:20;26.00;62.10
33739;DHT22;20063;51.730;11.110;2022-07-24T13:06:49;26.10;62.80
33739;DHT22;20063;51.730;11.110;2022-07-24T13:09:16;26.20;62.20
33739;DHT22;20063;51.730;11.110;2022-07-24T13:11:43;26.20;61.90
33739;DHT22;20063;51.730;11.110;2022-07-24T13:14:10;26.10;62.60
33739;DHT22;20063;51.730;11.110;2022-07-24T13:16:38;26.10;62.60
33739;DHT22;20063;51.730;11.110;2022-07-24T13:19:04;26.20;64.10
33739;DHT22;20063;51.730;11.110;2022-07-24T13:21:33;26.10;63.80
33739;DHT22;20063;51.730;11.110;2022-07-24T13:23:59;26.20;62.30
33739;DHT22;20063;51.730;11.110;2022-07-24T13:26:25;26.40;60.90
33739;DHT22;20063;51.730;11.110;2022-07-24T13:28:51;26.50;60.50
33739;DHT22;20063;51.730;11.110;2022-07-24T13:31:16;26.40;60.10
33739;DHT22;20063;51.730;11.110;2022-07-24T13:33:45;26.40;61.60
33739;DHT22;20063;51.730;11.110;2022-07-24T13:36:11;26.40;61.70
33739;DHT22;20063;51.730;11.110;2022-07-24T13:38:37;26.40;63.00
33739;DHT22;20063;51.730;11.110;2022-07-24T13:41:03;26.50;60.50
33739;DHT22;20063;51.730;11.110;2022-07-24T13:43:28;26.50;59.50
33739;DHT22;20063;51.730;11.110;2022-07-24T13:45:54;26.50;59.70
33739;DHT22;20063;51.730;11.110;2022-07-24T13:48:19;26.50;60.40
33739;DHT22;20063;51.730;11.110;2022-07-24T13:50:45;26.50;59.40
33739;DHT22;20063;51.730;11.110;2022-07-24T13:53:10;26.50;59.40
33739;DHT22;20063;51.730;11.110;2022-07-24T13:55:36;26.50;62.00
33739;DHT22;20063;51.730;11.110;2022-07-24T13:58:02;26.50;60.70
33739;DHT22;20063;51.730;11.110;2022-07-24T14:00:28;26.50;59.20
33739;DHT22;20063;51.730;11.110;2022-07-24T14:02:53;26.60;62.40
33739;DHT22;20063;51.730;11.110;2022-07-24T14:05:22;26.60;61.00
33739;DHT22;20063;51.730;11.110;2022-07-24T14:07:48;26.60;59.60
33739;DHT22;20063;51.730;11.110;2022-07-24T14:10:14;26.60;59.40
33739;DHT22;20063;51.730;11.110;2022-07-24T14:12:39;26.60;59.50
33739;DHT22;20063;51.730;11.110;2022-07-24T14:15:05;26.70;57.90
33739;DHT22;20063;51.730;11.110;2022-07-24T14:17:32;26.70;59.20
33739;DHT22;20063;51.730;11.110;2022-07-24T14:19:57;26.90;57.80
33739;DHT22;20063;51.730;11.110;2022-07-24T14:22:24;26.90;57.60
33739;DHT22;20063;51.730;11.110;2022-07-24T14:24:49;26.90;57.50
33739;DHT22;20063;51.730;11.110;2022-07-24T14:27:15;26.90;56.90
33739;DHT22;20063;51.730;11.110;2022-07-24T14:29:40;26.80;56.60
33739;DHT22;20063;51.730;11.110;2022-07-24T14:32:07;26.80;57.30
33739;DHT22;20063;51.730;11.110;2022-07-24T14:34:32;26.80;58.10
33739;DHT22;20063;51.730;11.110;2022-07-24T14:36:58;26.70;57.90
33739;DHT22;20063;51.730;11.110;2022-07-24T14:39:23;26.70;57.90
33739;DHT22;20063;51.730;11.110;2022-07-24T14:41:49;26.70;57.90
33739;DHT22;20063;51.730;11.110;2022-07-24T14:44:15;26.70;56.40
33739;DHT22;20063;51.730;11.110;2022-07-24T14:46:41;26.80;57.30
33739;DHT22;20063;51.730;11.110;2022-07-24T14:49:08;26.80;58.50
33739;DHT22;20063;51.730;11.110;2022-07-24T14:51:35;26.90;57.30
33739;DHT22;20063;51.730;11.110;2022-07-24T14:54:00;26.90;59.00
33739;DHT22;20063;51.730;11.110;2022-07-24T14:56:26;26.90;57.80
33739;DHT22;20063;51.730;11.110;2022-07-24T14:58:51;26.90;57.20
33739;DHT22;20063;51.730;11.110;2022-07-24T15:01:17;27.00;57.10
33739;DHT22;20063;51.730;11.110;2022-07-24T15:03:43;27.00;58.10
33739;DHT22;20063;51.730;11.110;2022-07-24T15:06:08;27.10;56.70
33739;DHT22;20063;51.730;11.110;2022-07-24T15:08:34;27.10;55.10
33739;DHT22;20063;51.730;11.110;2022-07-24T15:10:59;27.10;54.70
33739;DHT22;20063;51.730;11.110;2022-07-24T15:13:25;27.10;55.20
33739;DHT22;20063;51.730;11.110;2022-07-24T15:15:50;27.10;55.20
33739;DHT22;20063;51.730;11.110;2022-07-24T15:18:17;27.20;55.30
33739;DHT22;20063;51.730;11.110;2022-07-24T15:20:43;27.20;54.70
33739;DHT22;20063;51.730;11.110;2022-07-24T15:23:10;27.20;54.10
33739;DHT22;20063;51.730;11.110;2022-07-24T15:25:36;27.30;54.10
33739;DHT22;20063;51.730;11.110;2022-07-24T15:28:02;27.40;54.00
33739;DHT22;20063;51.730;11.110;2022-07-24T15:30:27;27.50;55.10
33739;DHT22;20063;51.730;11.110;2022-07-24T15:32:53;27.50;53.90
33739;DHT22;20063;51.730;11.110;2022-07-24T15:35:18;27.50;54.60
33739;DHT22;20063;51.730;11.110;2022-07-24T15:37:44;27.50;54.10
33739;DHT22;20063;51.730;11.110;2022-07-24T15:40:10;27.40;52.00
33739;DHT22;20063;51.730;11.110;2022-07-24T15:42:35;27.50;51.70
33739;DHT22;20063;51.730;11.110;2022-07-24T15:45:01;27.50;51.70
33739;DHT22;20063;51.730;11.110;2022-07-24T15:47:27;27.50;53.60
33739;DHT22;20063;51.730;11.110;2022-07-24T15:49:52;27.80;51.20
33739;DHT22;20063;51.730;11.110;2022-07-24T15:52:18;27.90;52.80
33739;DHT22;20063;51.730;11.110;2022-07-24T15:54:43;27.90;49.30
33739;DHT22;20063;51.730;11.110;2022-07-24T15:57:09;28.10;47.00
33739;DHT22;20063;51.730;11.110;2022-07-24T15:59:34;28.20;47.40
33739;DHT22;20063;51.730;11.110;2022-07-24T16:02:01;28.10;47.30
33739;DHT22;20063;51.730;11.110;2022-07-24T16:04:27;28.00;47.70
33739;DHT22;20063;51.730;11.110;2022-07-24T16:07:02;28.00;46.70
33739;DHT22;20063;51.730;11.110;2022-07-24T16:09:28;28.00;45.80
33739;DHT22;20063;51.730;11.110;2022-07-24T16:11:54;28.20;46.70
33739;DHT22;20063;51.730;11.110;2022-07-24T16:14:20;28.30;47.20
33739;DHT22;20063;51.730;11.110;2022-07-24T16:16:45;28.50;45.80
33739;DHT22;20063;51.730;11.110;2022-07-24T16:19:11;28.60;46.30
33739;DHT22;20063;51.730;11.110;2022-07-24T16:21:39;28.70;47.10
33739;DHT22;20063;51.730;11.110;2022-07-24T16:24:06;28.80;43.80
33739;DHT22;20063;51.730;11.110;2022-07-24T16:26:32;28.90;41.00
33739;DHT22;20063;51.730;11.110;2022-07-24T16:28:57;29.00;41.00
33739;DHT22;20063;51.730;11.110;2022-07-24T16:31:23;29.00;40.20
33739;DHT22;20063;51.730;11.110;2022-07-24T16:33:49;28.90;42.20
33739;DHT22;20063;51.730;11.110;2022-07-24T16:36:15;28.90;41.50
33739;DHT22;20063;51.730;11.110;2022-07-24T16:38:41;28.90;41.20
33739;DHT22;20063;51.730;11.110;2022-07-24T16:41:06;28.80;41.70
33739;DHT22;20063;51.730;11.110;2022-07-24T16:43:32;28.60;42.10
33739;DHT22;20063;51.730;11.110;2022-07-24T16:45:58;28.50;42.00
33739;DHT22;20063;51.730;11.110;2022-07-24T16:48:23;28.40;42.00
33739;DHT22;20063;51.730;11.110;2022-07-24T16:50:49;28.40;42.50
33739;DHT22;20063;51.730;11.110;2022-07-24T16:53:15;28.40;41.50
33739;DHT22;20063;51.730;11.110;2022-07-24T16:55:40;28.30;42.50
33739;DHT22;20063;51.730;11.110;2022-07-24T16:58:06;28.20;43.50